createdAt,value
2022-09-14T00:01:25.456Z,72.24
2022-09-14T00:03:55.064Z,71.54
2022-09-14T00:06:21.992Z,71.26
2022-09-14T00:08:52.957Z,71.19
2022-09-14T00:11:21.630Z,71.50
2022-09-14T00:13:49.007Z,71.54
2022-09-14T00:16:27.256Z,71.61
2022-09-14T00:19:00.564Z,71.43
2022-09-14T00:21:27.877Z,71.24
2022-09-14T00:23:54.430Z,70.89
2022-09-14T00:26:23.263Z,71.34
2022-09-14T00:28:56.447Z,71.74
2022-09-14T00:31:24.862Z,71.82
2022-09-14T00:33:53.829Z,72.19
2022-09-14T00:36:26.200Z,72.39
2022-09-14T00:38:56.476Z,72.42
2022-09-14T00:41:25.527Z,72.17
2022-09-14T00:43:57.684Z,72.59
2022-09-14T00:46:26.260Z,72.81
2022-09-14T00:48:53.626Z,73.21
2022-09-14T00:51:21.929Z,72.92
2022-09-14T00:53:48.594Z,73.11
2022-09-14T00:56:15.673Z,74.75
2022-09-14T00:58:44.696Z,72.93
2022-09-14T01:01:11.591Z,73.74
2022-09-14T01:03:38.057Z,75.38
2022-09-14T01:06:35.437Z,76.17
2022-09-14T01:09:24.882Z,77.29
2022-09-14T01:11:57.117Z,75.21
2022-09-14T01:14:44.823Z,74.93
2022-09-14T01:17:18.058Z,74.50
2022-09-14T01:19:59.453Z,74.65
2022-09-14T01:22:42.927Z,74.51
2022-09-14T01:25:33.864Z,74.33
2022-09-14T01:28:03.652Z,76.22
2022-09-14T01:30:33.570Z,75.91
2022-09-14T01:33:13.953Z,76.78
2022-09-14T01:36:08.320Z,77.56
2022-09-14T01:38:43.586Z,77.71
2022-09-14T01:41:13.408Z,76.88
2022-09-14T01:43:57.565Z,77.42
2022-09-14T01:46:31.697Z,76.55
2022-09-14T01:49:02.343Z,76.50
2022-09-14T01:51:36.270Z,76.94
2022-09-14T01:54:26.888Z,75.88
2022-09-14T01:57:05.496Z,76.32
2022-09-14T01:59:37.458Z,76.05
2022-09-14T02:02:18.157Z,76.06
2022-09-14T02:04:54.278Z,76.53
2022-09-14T02:07:20.865Z,76.37
2022-09-14T02:09:49.018Z,76.15
2022-09-14T02:12:15.955Z,76.61
2022-09-14T02:17:09.634Z,77.20
2022-09-14T02:19:55.288Z,77.47
2022-09-14T02:22:21.948Z,77.33
2022-09-14T02:24:49.152Z,76.75
2022-09-14T02:27:15.551Z,77.14
2022-09-14T02:29:42.109Z,77.09
2022-09-14T02:32:21.187Z,76.88
2022-09-14T02:34:53.305Z,77.39
2022-09-14T02:37:35.751Z,76.66
2022-09-14T02:40:31.299Z,76.91
2022-09-14T02:43:03.479Z,76.58
2022-09-14T02:45:50.724Z,76.63
2022-09-14T02:48:31.377Z,76.85
2022-09-14T02:51:25.296Z,76.88
2022-09-14T02:53:59.843Z,77.42
2022-09-14T02:56:28.711Z,77.70
2022-09-14T02:58:55.881Z,77.34
2022-09-14T03:01:24.319Z,77.85
2022-09-14T03:03:51.000Z,78.61
2022-09-14T03:06:17.735Z,79.52
2022-09-14T03:08:44.504Z,81.03
2022-09-14T03:11:11.173Z,82.29
2022-09-14T03:13:37.925Z,80.94
2022-09-14T03:16:09.387Z,79.96
2022-09-14T03:18:36.973Z,79.22
2022-09-14T03:21:08.967Z,79.35
2022-09-14T03:23:40.310Z,79.77
2022-09-14T03:26:12.224Z,80.03
2022-09-14T03:28:39.210Z,81.14
2022-09-14T03:31:07.929Z,81.16
2022-09-14T03:33:35.199Z,80.54
2022-09-14T03:36:09.230Z,80.77
2022-09-14T03:38:35.650Z,82.26
2022-09-14T03:41:07.120Z,83.23
2022-09-14T03:43:33.881Z,84.12
2022-09-14T03:46:08.591Z,83.99
2022-09-14T03:48:35.604Z,82.72
2022-09-14T03:51:03.894Z,82.86
2022-09-14T03:53:30.821Z,83.01
2022-09-14T03:55:57.446Z,82.08
2022-09-14T03:58:24.412Z,81.61
2022-09-14T04:00:51.444Z,81.50
2022-09-14T04:03:18.559Z,81.82
2022-09-14T04:05:55.183Z,81.57
2022-09-14T04:08:21.974Z,81.70
2022-09-14T04:10:48.406Z,81.98
2022-09-14T04:13:14.829Z,82.22
2022-09-14T04:15:41.499Z,82.47
2022-09-14T04:18:07.937Z,83.10
2022-09-14T04:20:35.215Z,84.43
2022-09-14T04:23:01.622Z,85.94
2022-09-14T04:25:28.045Z,88.06
2022-09-14T04:28:16.621Z,88.14
2022-09-14T04:30:41.166Z,87.23
2022-09-14T04:33:07.630Z,86.78
2022-09-14T04:35:34.097Z,86.83
2022-09-14T04:38:00.519Z,87.50
2022-09-14T04:40:28.877Z,87.69
2022-09-14T04:42:55.396Z,87.05
2022-09-14T04:45:21.807Z,87.80
2022-09-14T04:47:48.389Z,88.78
2022-09-14T04:50:15.267Z,88.20
2022-09-14T04:52:41.765Z,89.11
2022-09-14T04:55:08.522Z,88.96
2022-09-14T04:57:34.944Z,89.08
2022-09-14T05:00:01.581Z,89.05
2022-09-14T05:02:30.932Z,88.88
2022-09-14T05:04:58.870Z,89.19
2022-09-14T05:07:25.278Z,89.63
2022-09-14T05:09:51.761Z,89.75
2022-09-14T05:12:18.190Z,89.68
2022-09-14T05:14:44.603Z,89.47
2022-09-14T05:17:11.093Z,89.63
2022-09-14T05:19:37.541Z,89.44
2022-09-14T05:22:04.049Z,88.94
2022-09-14T05:24:31.012Z,89.75
2022-09-14T05:27:01.009Z,89.69
2022-09-14T05:29:29.577Z,88.94
2022-09-14T05:31:56.074Z,88.25
2022-09-14T05:34:22.532Z,88.21
2022-09-14T05:36:49.039Z,88.17
2022-09-14T05:39:18.697Z,88.17
2022-09-14T05:41:50.074Z,87.96
2022-09-14T05:44:16.581Z,88.00
2022-09-14T05:46:43.050Z,88.22
2022-09-14T05:49:09.556Z,88.46
2022-09-14T05:51:35.963Z,87.63
2022-09-14T05:54:03.087Z,86.39
2022-09-14T05:56:31.754Z,86.30
2022-09-14T05:58:59.351Z,86.42
2022-09-14T06:01:31.746Z,86.49
2022-09-14T06:04:02.135Z,87.42
2022-09-14T06:06:30.281Z,86.85
2022-09-14T06:08:57.188Z,86.47
2022-09-14T06:11:29.194Z,86.23
2022-09-14T06:13:56.278Z,85.46
2022-09-14T06:16:24.670Z,85.52
2022-09-14T06:18:51.207Z,84.67
2022-09-14T06:21:19.840Z,84.31
2022-09-14T06:23:47.609Z,83.62
2022-09-14T06:26:14.427Z,82.78
2022-09-14T06:28:41.206Z,83.08
2022-09-14T06:31:09.973Z,81.99
2022-09-14T06:33:37.122Z,82.71
2022-09-14T06:36:12.664Z,82.11
2022-09-14T06:38:40.347Z,81.90
2022-09-14T06:41:09.202Z,81.70
2022-09-14T06:43:41.357Z,81.39
2022-09-14T06:46:14.660Z,80.31
2022-09-14T06:48:47.368Z,78.92
2022-09-14T06:51:23.423Z,76.78
2022-09-14T06:53:51.182Z,74.66
2022-09-14T06:56:18.832Z,73.45
2022-09-14T06:58:45.690Z,72.45
2022-09-14T07:01:15.737Z,70.47
2022-09-14T07:03:43.997Z,68.73
2022-09-14T07:06:15.980Z,67.17
2022-09-14T07:08:43.513Z,65.84
2022-09-14T07:11:12.260Z,64.58
2022-09-14T07:13:38.831Z,63.65
2022-09-14T07:16:06.053Z,62.62
2022-09-14T07:18:32.835Z,61.21
2022-09-14T07:21:16.887Z,61.13
2022-09-14T07:23:45.712Z,63.36
2022-09-14T07:26:20.983Z,65.16
2022-09-14T07:28:53.093Z,65.46
2022-09-14T07:31:24.679Z,66.43
2022-09-14T07:33:56.652Z,66.67
2022-09-14T07:36:24.964Z,67.77
2022-09-14T07:38:53.358Z,66.26
2022-09-14T07:41:25.786Z,65.20
2022-09-14T07:43:54.045Z,61.96
2022-09-14T07:46:21.458Z,59.87
2022-09-14T07:48:49.174Z,61.20
2022-09-14T07:51:15.998Z,62.81
2022-09-14T07:53:43.613Z,63.33
2022-09-14T07:56:11.859Z,64.11
2022-09-14T07:58:38.922Z,62.60
2022-09-14T08:01:09.046Z,62.64
2022-09-14T08:03:40.169Z,59.63
2022-09-14T08:06:12.784Z,58.39
2022-09-14T08:08:41.818Z,59.80
2022-09-14T08:11:17.495Z,60.93
2022-09-14T08:13:46.791Z,60.80
2022-09-14T08:16:13.660Z,60.53
2022-09-14T08:18:40.576Z,58.35
2022-09-14T08:21:09.939Z,56.81
2022-09-14T08:23:37.256Z,56.73
2022-09-14T08:26:16.784Z,56.78
2022-09-14T08:28:44.263Z,56.68
2022-09-14T08:31:13.985Z,56.79
2022-09-14T08:33:44.189Z,58.29
2022-09-14T08:36:13.426Z,58.18
2022-09-14T08:38:39.987Z,58.69
2022-09-14T08:41:28.920Z,60.22
2022-09-14T08:44:01.728Z,60.19
2022-09-14T08:46:35.402Z,62.60
2022-09-14T08:49:05.439Z,64.52
2022-09-14T08:51:31.942Z,66.84
2022-09-14T08:53:59.505Z,69.93
2022-09-14T08:56:32.109Z,70.15
2022-09-14T08:59:27.303Z,69.91
2022-09-14T09:02:05.250Z,70.71
2022-09-14T09:05:10.623Z,69.71
2022-09-14T09:07:53.655Z,70.23
2022-09-14T09:10:20.686Z,73.35
2022-09-14T09:12:55.050Z,72.26
2022-09-14T09:15:27.558Z,72.36
2022-09-14T09:17:59.677Z,72.33
2022-09-14T09:20:33.540Z,67.09
2022-09-14T09:23:12.288Z,65.19
2022-09-14T09:26:03.471Z,59.92
2022-09-14T09:28:31.241Z,58.44
2022-09-14T09:31:04.891Z,57.27
2022-09-14T09:33:32.342Z,56.96
2022-09-14T09:35:59.486Z,54.01
2022-09-14T09:38:29.245Z,54.54
2022-09-14T09:41:05.870Z,53.46
2022-09-14T09:43:49.383Z,50.85
2022-09-14T09:46:17.732Z,49.84
2022-09-14T09:48:45.834Z,46.98
2022-09-14T09:51:14.075Z,45.34
2022-09-14T09:53:53.456Z,51.64
2022-09-14T09:56:31.870Z,50.53
2022-09-14T09:58:58.479Z,50.79
2022-09-14T10:01:35.760Z,49.12
2022-09-14T10:04:20.068Z,51.28
2022-09-14T10:06:49.825Z,53.30
2022-09-14T10:09:23.443Z,53.08
2022-09-14T10:11:57.500Z,55.25
2022-09-14T10:14:34.591Z,53.10
2022-09-14T10:17:19.861Z,50.43
2022-09-14T10:19:53.770Z,49.31
2022-09-14T10:22:28.061Z,48.62
2022-09-14T10:24:58.441Z,49.22
2022-09-14T10:27:38.213Z,50.75
2022-09-14T10:30:07.299Z,53.21
2022-09-14T10:32:35.035Z,53.50
2022-09-14T10:35:01.606Z,54.05
2022-09-14T10:37:32.073Z,51.53
2022-09-14T10:40:16.845Z,51.83
2022-09-14T10:43:02.352Z,52.46
2022-09-14T10:45:31.413Z,52.14
2022-09-14T10:48:40.986Z,51.75
2022-09-14T10:51:27.160Z,52.03
2022-09-14T10:54:44.219Z,51.98
2022-09-14T10:57:37.487Z,51.69
2022-09-14T11:00:12.399Z,51.10
2022-09-14T11:03:15.906Z,51.45
2022-09-14T11:06:17.995Z,51.72
2022-09-14T11:08:49.433Z,47.88
2022-09-14T11:11:22.880Z,49.68
2022-09-14T11:14:18.862Z,50.99
2022-09-14T11:17:06.918Z,53.50
2022-09-14T11:19:48.586Z,53.50
2022-09-14T11:22:24.233Z,54.11
2022-09-14T11:25:03.473Z,53.91
2022-09-14T11:27:39.909Z,53.27
2022-09-14T11:30:16.008Z,54.77
2022-09-14T11:32:52.674Z,55.12
2022-09-14T11:35:37.729Z,55.20
2022-09-14T11:38:28.154Z,56.06
2022-09-14T11:41:21.516Z,57.33
2022-09-14T11:43:57.983Z,58.62
2022-09-14T11:46:42.082Z,59.21
2022-09-14T11:49:26.061Z,59.84
2022-09-14T11:51:59.076Z,60.57
2022-09-14T11:54:25.800Z,58.79
2022-09-14T11:57:03.672Z,56.94
2022-09-14T11:59:39.474Z,56.33
2022-09-14T12:02:24.010Z,57.41
2022-09-14T12:05:05.755Z,58.04
2022-09-14T12:07:47.122Z,56.78
2022-09-14T12:10:13.522Z,56.98
2022-09-14T12:12:45.046Z,57.17
2022-09-14T12:15:23.098Z,56.83
2022-09-14T12:17:55.114Z,58.10
2022-09-14T12:20:33.171Z,58.22
2022-09-14T12:23:34.499Z,59.73
2022-09-14T12:26:05.881Z,59.74
2022-09-14T12:28:35.249Z,59.67
2022-09-14T12:31:04.734Z,60.45
2022-09-14T12:33:31.269Z,60.86
2022-09-14T12:35:57.644Z,61.59
2022-09-14T12:38:32.905Z,62.88
2022-09-14T12:41:08.314Z,63.38
2022-09-14T12:43:37.836Z,63.68
2022-09-14T12:46:22.619Z,64.26
2022-09-14T12:48:49.332Z,65.45
2022-09-14T12:51:34.941Z,67.74
2022-09-14T12:54:22.753Z,69.14
2022-09-14T12:57:14.054Z,71.12
2022-09-14T12:59:55.225Z,73.03
2022-09-14T13:02:44.450Z,74.31
2022-09-14T13:05:15.800Z,73.95
2022-09-14T13:07:42.856Z,74.81
2022-09-14T13:10:25.153Z,75.34
2022-09-14T13:12:52.361Z,76.47
2022-09-14T13:15:37.988Z,76.75
2022-09-14T13:18:24.701Z,77.72
2022-09-14T13:20:56.690Z,78.17
2022-09-14T13:23:28.307Z,80.21
2022-09-14T13:25:55.067Z,80.13
2022-09-14T13:28:24.489Z,81.61
2022-09-14T13:30:56.676Z,84.54
2022-09-14T13:33:23.592Z,82.23
2022-09-14T13:35:51.739Z,83.51
2022-09-14T13:38:22.869Z,83.71
2022-09-14T13:40:52.497Z,83.38
2022-09-14T13:43:21.044Z,82.89
2022-09-14T13:45:49.623Z,83.44
2022-09-14T13:48:18.562Z,80.88
2022-09-14T13:50:48.036Z,79.31
2022-09-14T13:53:45.554Z,80.02
2022-09-14T13:56:22.944Z,79.82
2022-09-14T13:59:15.176Z,77.59
2022-09-14T14:01:49.766Z,75.72
2022-09-14T14:04:38.479Z,72.92
2022-09-14T14:07:26.062Z,73.23
2022-09-14T14:09:55.291Z,71.94
2022-09-14T14:12:27.688Z,71.21
2022-09-14T14:15:12.242Z,68.99
2022-09-14T14:17:40.653Z,67.52
2022-09-14T14:20:26.123Z,69.81
2022-09-14T14:23:20.039Z,72.72
2022-09-14T14:25:52.078Z,72.99
2022-09-14T14:28:23.644Z,71.13
2022-09-14T14:30:51.017Z,69.26
2022-09-14T14:33:19.207Z,69.67
2022-09-14T14:35:52.714Z,69.47
2022-09-14T14:38:19.358Z,70.15
2022-09-14T14:40:46.715Z,68.68
2022-09-14T14:43:24.892Z,69.89
2022-09-14T14:45:55.349Z,72.45
2022-09-14T14:48:21.803Z,73.90
2022-09-14T14:50:48.458Z,71.52
2022-09-14T14:53:15.535Z,74.78
2022-09-14T14:55:42.226Z,75.61
2022-09-14T14:58:21.565Z,77.04
2022-09-14T15:00:48.186Z,78.90
2022-09-14T15:03:15.565Z,79.35
2022-09-14T15:05:46.916Z,79.78
2022-09-14T15:08:15.629Z,81.25
2022-09-14T15:10:42.447Z,80.26
2022-09-14T15:13:10.643Z,79.97
2022-09-14T15:15:39.014Z,79.32
2022-09-14T15:18:05.588Z,81.19
2022-09-14T15:20:31.999Z,80.40
2022-09-14T15:22:58.424Z,82.44
2022-09-14T15:25:24.826Z,86.02
2022-09-14T15:27:51.330Z,85.55
2022-09-14T15:30:17.843Z,85.35
2022-09-14T15:32:44.701Z,85.35
2022-09-14T15:35:13.295Z,84.54
2022-09-14T15:37:40.590Z,83.09
2022-09-14T15:40:07.586Z,83.07
2022-09-14T15:42:34.128Z,84.20
2022-09-14T15:45:00.602Z,82.15
2022-09-14T15:47:27.048Z,81.27
2022-09-14T15:49:53.521Z,81.73
2022-09-14T15:52:20.198Z,82.91
2022-09-14T15:54:46.874Z,82.93
2022-09-14T15:57:13.508Z,82.20
2022-09-14T15:59:40.183Z,85.06
2022-09-14T16:02:07.411Z,84.46
2022-09-14T16:04:37.965Z,86.10
2022-09-14T16:07:09.550Z,86.57
2022-09-14T16:09:38.114Z,86.69
2022-09-14T16:12:04.821Z,87.26
2022-09-14T16:14:31.494Z,87.31
2022-09-14T16:17:00.334Z,87.64
2022-09-14T16:19:26.881Z,88.21
2022-09-14T16:21:53.913Z,88.12
2022-09-14T16:24:21.966Z,88.51
2022-09-14T16:26:48.531Z,90.26
2022-09-14T16:29:17.183Z,90.92
2022-09-14T16:31:45.672Z,90.59
2022-09-14T16:34:26.804Z,90.10
2022-09-14T16:36:53.887Z,90.72
2022-09-14T16:39:23.320Z,90.57
2022-09-14T16:41:50.452Z,89.73
2022-09-14T16:44:22.905Z,89.60
2022-09-14T16:46:49.475Z,90.06
2022-09-14T16:49:17.184Z,89.29
2022-09-14T16:51:43.773Z,90.34
2022-09-14T16:54:15.665Z,92.55
2022-09-14T16:56:42.224Z,92.13
2022-09-14T16:59:09.815Z,91.28
2022-09-14T17:01:40.024Z,91.57
2022-09-14T17:04:13.279Z,91.60
2022-09-14T17:06:41.946Z,90.85
2022-09-14T17:09:20.812Z,90.87
2022-09-14T17:11:48.522Z,91.01
2022-09-14T17:14:17.305Z,90.97
2022-09-14T17:16:43.998Z,92.44
2022-09-14T17:19:11.357Z,92.20
2022-09-14T17:21:40.621Z,92.39
2022-09-14T17:24:08.152Z,92.31
2022-09-14T17:26:35.317Z,92.84
2022-09-14T17:29:03.096Z,95.59
2022-09-14T17:31:36.147Z,95.25
2022-09-14T17:34:04.752Z,94.68
2022-09-14T17:36:31.215Z,94.92
2022-09-14T17:38:59.497Z,96.10
2022-09-14T17:41:30.386Z,94.98
2022-09-14T17:44:02.087Z,94.77
2022-09-14T17:46:29.675Z,96.23
2022-09-14T17:49:00.567Z,98.42
2022-09-14T17:51:28.712Z,96.82
2022-09-14T17:53:57.234Z,98.53
2022-09-14T17:56:27.338Z,100.00
2022-09-14T17:59:04.166Z,98.80
2022-09-14T18:01:31.621Z,98.23
2022-09-14T18:04:02.467Z,98.13
2022-09-14T18:06:31.439Z,97.11
2022-09-14T18:09:01.749Z,94.87
2022-09-14T18:11:29.122Z,94.45
2022-09-14T18:13:56.117Z,95.55
2022-09-14T18:16:24.232Z,97.25
2022-09-14T18:18:51.536Z,97.50
2022-09-14T18:21:18.696Z,98.54
2022-09-14T18:23:50.026Z,98.31
2022-09-14T18:26:16.858Z,97.73
2022-09-14T18:28:44.421Z,96.66
2022-09-14T18:31:13.846Z,90.79
2022-09-14T18:33:46.052Z,91.05
2022-09-14T18:36:15.095Z,89.67
2022-09-14T18:38:42.415Z,88.69
2022-09-14T18:41:10.689Z,85.11
2022-09-14T18:43:38.065Z,86.84
2022-09-14T18:46:08.000Z,84.05
2022-09-14T18:48:35.244Z,83.21
2022-09-14T18:51:04.537Z,83.12
2022-09-14T18:53:31.772Z,81.90
2022-09-14T18:56:02.913Z,80.34
2022-09-14T18:58:33.164Z,84.02
2022-09-14T19:00:59.738Z,86.06
2022-09-14T19:03:26.179Z,84.17
2022-09-14T19:05:52.670Z,88.61
2022-09-14T19:08:19.087Z,88.96
2022-09-14T19:10:45.729Z,87.54
2022-09-14T19:13:12.170Z,88.62
2022-09-14T19:15:40.950Z,83.10
2022-09-14T19:18:09.041Z,87.01
2022-09-14T19:21:02.481Z,87.80
2022-09-14T19:23:26.133Z,88.68
2022-09-14T19:25:52.637Z,91.22
2022-09-14T19:28:19.321Z,91.13
2022-09-14T19:30:46.437Z,91.70
2022-09-14T19:33:13.049Z,92.19
2022-09-14T19:35:39.600Z,92.65
2022-09-14T19:38:06.021Z,94.22
2022-09-14T19:40:32.574Z,95.98
2022-09-14T19:42:59.085Z,94.21
2022-09-14T19:45:25.561Z,94.27
2022-09-14T19:47:51.979Z,94.17
2022-09-14T19:50:18.385Z,92.51
2022-09-14T19:52:44.889Z,92.75
2022-09-14T19:55:11.319Z,89.67
2022-09-14T19:57:38.155Z,89.36
2022-09-14T20:00:07.455Z,91.29
2022-09-14T20:02:34.033Z,89.12
2022-09-14T20:05:00.610Z,87.21
2022-09-14T20:07:27.012Z,87.42
2022-09-14T20:09:53.461Z,87.21
2022-09-14T20:12:19.960Z,87.32
2022-09-14T20:14:46.357Z,89.57
2022-09-14T20:17:12.777Z,89.77
2022-09-14T20:19:39.723Z,89.32
2022-09-14T20:22:06.308Z,89.50
2022-09-14T20:24:32.845Z,91.59
2022-09-14T20:27:00.752Z,91.22
2022-09-14T20:29:30.481Z,93.58
2022-09-14T20:31:58.294Z,94.34
2022-09-14T20:34:25.051Z,94.96
2022-09-14T20:36:52.636Z,94.63
2022-09-14T20:39:20.814Z,93.03
2022-09-14T20:41:47.294Z,88.99
2022-09-14T20:44:14.426Z,85.82
2022-09-14T20:46:43.126Z,84.89
2022-09-14T20:49:12.171Z,86.62
2022-09-14T20:51:39.346Z,86.57
2022-09-14T20:54:06.945Z,87.66
2022-09-14T20:56:34.990Z,87.90
2022-09-14T20:59:06.229Z,88.08
2022-09-14T21:01:36.051Z,88.75
2022-09-14T21:04:05.331Z,88.03
2022-09-14T21:06:31.970Z,87.95
2022-09-14T21:08:59.898Z,87.92
2022-09-14T21:11:27.304Z,89.03
2022-09-14T21:13:55.484Z,88.44
2022-09-14T21:16:26.189Z,87.60
2022-09-14T21:18:56.502Z,88.01
2022-09-14T21:21:23.399Z,90.75
2022-09-14T21:23:50.692Z,92.39
2022-09-14T21:26:18.758Z,92.48
2022-09-14T21:28:45.245Z,91.16
2022-09-14T21:31:21.541Z,92.62
2022-09-14T21:33:51.295Z,91.82
2022-09-14T21:36:19.429Z,90.65
2022-09-14T21:38:50.756Z,89.84
2022-09-14T21:41:18.859Z,90.72
2022-09-14T21:43:45.596Z,90.79
2022-09-14T21:46:12.132Z,89.59
2022-09-14T21:48:38.902Z,89.54
2022-09-14T21:51:06.953Z,91.69
2022-09-14T21:53:34.451Z,92.11
2022-09-14T21:56:05.591Z,91.33
2022-09-14T21:58:32.807Z,91.56
2022-09-14T22:01:02.109Z,93.89
2022-09-14T22:03:29.367Z,94.86
2022-09-14T22:06:07.307Z,93.34
2022-09-14T22:08:35.193Z,91.81
2022-09-14T22:11:06.526Z,93.70
2022-09-14T22:13:33.767Z,95.22
2022-09-14T22:16:08.033Z,93.84
2022-09-14T22:18:36.794Z,94.92
2022-09-14T22:21:04.739Z,96.34
2022-09-14T22:23:32.794Z,96.94
2022-09-14T22:25:59.710Z,96.19
2022-09-14T22:28:26.156Z,96.62
2022-09-14T22:30:55.094Z,96.01
2022-09-14T22:33:23.193Z,98.00
2022-09-14T22:35:57.735Z,98.41
2022-09-14T22:38:26.098Z,96.81
2022-09-14T22:40:59.726Z,95.58
2022-09-14T22:43:27.210Z,96.44
2022-09-14T22:45:54.552Z,95.69
2022-09-14T22:48:22.162Z,94.34
2022-09-14T22:50:50.329Z,93.88
2022-09-14T22:53:17.621Z,93.65
2022-09-14T22:55:44.849Z,94.25
2022-09-14T22:58:14.092Z,96.69
2022-09-14T23:00:41.681Z,96.81
2022-09-14T23:03:09.458Z,95.44
2022-09-14T23:05:37.593Z,95.20
2022-09-14T23:08:05.873Z,97.59
2022-09-14T23:10:32.349Z,97.00
2022-09-14T23:12:59.152Z,96.24
2022-09-14T23:15:25.581Z,97.18
2022-09-14T23:17:52.305Z,97.10
2022-09-14T23:20:18.874Z,98.02
2022-09-14T23:22:45.293Z,98.56
2022-09-14T23:25:11.727Z,97.24
2022-09-14T23:27:38.344Z,95.77
2022-09-14T23:30:05.161Z,96.54
2022-09-14T23:32:32.218Z,97.61
2022-09-14T23:34:58.663Z,97.85
2022-09-14T23:37:25.178Z,97.22
2022-09-14T23:39:51.713Z,95.51
2022-09-14T23:42:18.171Z,96.16
2022-09-14T23:44:44.684Z,96.00
2022-09-14T23:47:11.085Z,95.40
2022-09-14T23:49:37.485Z,95.73
2022-09-14T23:52:04.026Z,95.23
2022-09-14T23:54:31.966Z,95.73
2022-09-14T23:56:58.419Z,97.02
2022-09-14T23:59:24.835Z,95.24
